sensor_id;sensor_type;location;lat;lon;timestamp;P1;durP1;ratioP1;P2;durP2;ratioP2
14251;SDS011;7210;51.502;10.722;2024-02-14T00:01:05;7.53;;;4.90;;
14251;SDS011;7210;51.502;10.722;2024-02-14T00:03:34;5.77;;;4.77;;
14251;SDS011;7210;51.502;10.722;2024-02-14T00:06:03;6.13;;;5.53;;
14251;SDS011;7210;51.502;10.722;2024-02-14T00:08:30;6.77;;;5.13;;
14251;SDS011;7210;51.502;10.722;2024-02-14T00:10:59;6.57;;;5.20;;
14251;SDS011;7210;51.502;10.722;2024-02-14T00:13:27;6.07;;;5.27;;
14251;SDS011;7210;51.502;10.722;2024-02-14T00:15:54;7.43;;;5.50;;
14251;SDS011;7210;51.502;10.722;2024-02-14T00:18:22;5.63;;;5.03;;
14251;SDS011;7210;51.502;10.722;2024-02-14T00:20:49;7.27;;;5.43;;
14251;SDS011;7210;51.502;10.722;2024-02-14T00:23:16;6.47;;;5.50;;
14251;SDS011;7210;51.502;10.722;2024-02-14T00:25:43;6.73;;;5.40;;
14251;SDS011;7210;51.502;10.722;2024-02-14T00:28:12;8.90;;;6.07;;
14251;SDS011;7210;51.502;10.722;2024-02-14T00:30:39;7.17;;;6.00;;
14251;SDS011;7210;51.502;10.722;2024-02-14T00:33:06;6.53;;;5.70;;
14251;SDS011;7210;51.502;10.722;2024-02-14T00:35:33;7.00;;;5.23;;
14251;SDS011;7210;51.502;10.722;2024-02-14T00:38:00;5.77;;;5.17;;
14251;SDS011;7210;51.502;10.722;2024-02-14T00:40:27;7.73;;;5.63;;
14251;SDS011;7210;51.502;10.722;2024-02-14T00:42:54;5.63;;;5.07;;
14251;SDS011;7210;51.502;10.722;2024-02-14T00:45:27;6.47;;;5.73;;
14251;SDS011;7210;51.502;10.722;2024-02-14T00:47:54;7.53;;;6.10;;
14251;SDS011;7210;51.502;10.722;2024-02-14T00:50:21;6.57;;;5.93;;
14251;SDS011;7210;51.502;10.722;2024-02-14T00:52:48;6.63;;;5.80;;
14251;SDS011;7210;51.502;10.722;2024-02-14T00:55:19;6.67;;;5.83;;
14251;SDS011;7210;51.502;10.722;2024-02-14T00:57:47;6.93;;;5.97;;
14251;SDS011;7210;51.502;10.722;2024-02-14T01:00:19;7.37;;;6.23;;
14251;SDS011;7210;51.502;10.722;2024-02-14T01:02:48;6.83;;;6.10;;
14251;SDS011;7210;51.502;10.722;2024-02-14T01:05:15;7.43;;;6.13;;
14251;SDS011;7210;51.502;10.722;2024-02-14T01:07:42;8.00;;;6.30;;
14251;SDS011;7210;51.502;10.722;2024-02-14T01:10:11;10.50;;;7.20;;
14251;SDS011;7210;51.502;10.722;2024-02-14T01:12:38;7.03;;;6.33;;
14251;SDS011;7210;51.502;10.722;2024-02-14T01:15:06;8.43;;;6.23;;
14251;SDS011;7210;51.502;10.722;2024-02-14T01:17:34;6.53;;;5.60;;
14251;SDS011;7210;51.502;10.722;2024-02-14T01:20:05;7.77;;;6.40;;
14251;SDS011;7210;51.502;10.722;2024-02-14T01:22:34;8.03;;;6.50;;
14251;SDS011;7210;51.502;10.722;2024-02-14T01:25:02;7.03;;;5.80;;
14251;SDS011;7210;51.502;10.722;2024-02-14T01:27:30;7.37;;;5.73;;
14251;SDS011;7210;51.502;10.722;2024-02-14T01:29:57;6.60;;;5.87;;
14251;SDS011;7210;51.502;10.722;2024-02-14T01:32:24;7.53;;;6.80;;
14251;SDS011;7210;51.502;10.722;2024-02-14T01:34:55;7.23;;;6.50;;
14251;SDS011;7210;51.502;10.722;2024-02-14T01:37:24;8.20;;;6.53;;
14251;SDS011;7210;51.502;10.722;2024-02-14T01:39:51;8.40;;;6.30;;
14251;SDS011;7210;51.502;10.722;2024-02-14T01:42:18;6.63;;;5.90;;
14251;SDS011;7210;51.502;10.722;2024-02-14T01:44:45;6.63;;;5.93;;
14251;SDS011;7210;51.502;10.722;2024-02-14T01:47:12;9.13;;;6.40;;
14251;SDS011;7210;51.502;10.722;2024-02-14T01:49:40;9.23;;;6.97;;
14251;SDS011;7210;51.502;10.722;2024-02-14T01:52:09;7.60;;;6.33;;
14251;SDS011;7210;51.502;10.722;2024-02-14T01:54:38;7.73;;;6.57;;
14251;SDS011;7210;51.502;10.722;2024-02-14T01:57:05;7.13;;;6.13;;
14251;SDS011;7210;51.502;10.722;2024-02-14T01:59:35;7.47;;;5.97;;
14251;SDS011;7210;51.502;10.722;2024-02-14T02:02:03;8.50;;;6.13;;
14251;SDS011;7210;51.502;10.722;2024-02-14T02:04:32;7.77;;;6.37;;
14251;SDS011;7210;51.502;10.722;2024-02-14T02:07:00;9.73;;;6.53;;
14251;SDS011;7210;51.502;10.722;2024-02-14T02:09:27;7.93;;;6.80;;
14251;SDS011;7210;51.502;10.722;2024-02-14T02:11:57;10.00;;;7.17;;
14251;SDS011;7210;51.502;10.722;2024-02-14T02:14:25;7.67;;;6.50;;
14251;SDS011;7210;51.502;10.722;2024-02-14T02:16:53;8.87;;;6.33;;
14251;SDS011;7210;51.502;10.722;2024-02-14T02:19:20;8.03;;;6.13;;
14251;SDS011;7210;51.502;10.722;2024-02-14T02:21:47;7.60;;;5.67;;
14251;SDS011;7210;51.502;10.722;2024-02-14T02:24:15;7.17;;;6.00;;
14251;SDS011;7210;51.502;10.722;2024-02-14T02:26:43;7.10;;;5.80;;
14251;SDS011;7210;51.502;10.722;2024-02-14T02:29:10;7.47;;;6.43;;
14251;SDS011;7210;51.502;10.722;2024-02-14T02:31:37;5.93;;;5.33;;
14251;SDS011;7210;51.502;10.722;2024-02-14T02:34:04;9.07;;;6.73;;
14251;SDS011;7210;51.502;10.722;2024-02-14T02:36:32;6.17;;;5.53;;
14251;SDS011;7210;51.502;10.722;2024-02-14T02:39:01;6.40;;;5.70;;
14251;SDS011;7210;51.502;10.722;2024-02-14T02:41:29;7.20;;;6.27;;
14251;SDS011;7210;51.502;10.722;2024-02-14T02:44:01;5.90;;;5.17;;
14251;SDS011;7210;51.502;10.722;2024-02-14T02:46:31;8.73;;;5.97;;
14251;SDS011;7210;51.502;10.722;2024-02-14T02:48:59;8.33;;;6.40;;
14251;SDS011;7210;51.502;10.722;2024-02-14T02:51:27;10.07;;;5.30;;
14251;SDS011;7210;51.502;10.722;2024-02-14T02:53:55;5.87;;;5.00;;
14251;SDS011;7210;51.502;10.722;2024-02-14T02:56:22;6.50;;;5.80;;
14251;SDS011;7210;51.502;10.722;2024-02-14T02:58:53;5.90;;;5.13;;
14251;SDS011;7210;51.502;10.722;2024-02-14T03:01:20;7.93;;;5.27;;
14251;SDS011;7210;51.502;10.722;2024-02-14T03:03:49;8.73;;;6.20;;
14251;SDS011;7210;51.502;10.722;2024-02-14T03:06:16;7.50;;;5.50;;
14251;SDS011;7210;51.502;10.722;2024-02-14T03:08:43;5.83;;;5.00;;
14251;SDS011;7210;51.502;10.722;2024-02-14T03:11:10;6.73;;;5.37;;
14251;SDS011;7210;51.502;10.722;2024-02-14T03:13:37;5.53;;;4.60;;
14251;SDS011;7210;51.502;10.722;2024-02-14T03:16:07;6.23;;;4.30;;
14251;SDS011;7210;51.502;10.722;2024-02-14T03:18:36;7.77;;;4.97;;
14251;SDS011;7210;51.502;10.722;2024-02-14T03:21:04;6.17;;;4.20;;
14251;SDS011;7210;51.502;10.722;2024-02-14T03:23:31;5.40;;;4.13;;
14251;SDS011;7210;51.502;10.722;2024-02-14T03:25:58;8.10;;;4.10;;
14251;SDS011;7210;51.502;10.722;2024-02-14T03:28:25;5.00;;;4.13;;
14251;SDS011;7210;51.502;10.722;2024-02-14T03:30:55;6.83;;;4.50;;
14251;SDS011;7210;51.502;10.722;2024-02-14T03:33:24;6.40;;;4.07;;
14251;SDS011;7210;51.502;10.722;2024-02-14T03:35:51;5.33;;;3.97;;
14251;SDS011;7210;51.502;10.722;2024-02-14T03:38:24;6.20;;;4.70;;
14251;SDS011;7210;51.502;10.722;2024-02-14T03:40:52;6.30;;;4.23;;
14251;SDS011;7210;51.502;10.722;2024-02-14T03:43:19;4.73;;;3.70;;
14251;SDS011;7210;51.502;10.722;2024-02-14T03:45:48;4.33;;;3.80;;
14251;SDS011;7210;51.502;10.722;2024-02-14T03:48:19;5.97;;;3.60;;
14251;SDS011;7210;51.502;10.722;2024-02-14T03:50:48;4.57;;;3.90;;
14251;SDS011;7210;51.502;10.722;2024-02-14T03:53:19;3.63;;;3.33;;
14251;SDS011;7210;51.502;10.722;2024-02-14T03:55:47;5.37;;;3.30;;
14251;SDS011;7210;51.502;10.722;2024-02-14T03:58:14;5.03;;;3.07;;
14251;SDS011;7210;51.502;10.722;2024-02-14T04:00:45;5.57;;;3.77;;
14251;SDS011;7210;51.502;10.722;2024-02-14T04:03:13;3.97;;;3.33;;
14251;SDS011;7210;51.502;10.722;2024-02-14T04:05:40;3.37;;;3.07;;
14251;SDS011;7210;51.502;10.722;2024-02-14T04:08:09;4.80;;;3.87;;
14251;SDS011;7210;51.502;10.722;2024-02-14T04:10:37;5.37;;;3.20;;
14251;SDS011;7210;51.502;10.722;2024-02-14T04:13:04;3.50;;;3.20;;
14251;SDS011;7210;51.502;10.722;2024-02-14T04:15:32;4.77;;;3.07;;
14251;SDS011;7210;51.502;10.722;2024-02-14T04:17:59;4.10;;;3.30;;
14251;SDS011;7210;51.502;10.722;2024-02-14T04:20:27;6.73;;;3.60;;
14251;SDS011;7210;51.502;10.722;2024-02-14T04:22:55;3.97;;;3.00;;
14251;SDS011;7210;51.502;10.722;2024-02-14T04:25:25;4.10;;;2.70;;
14251;SDS011;7210;51.502;10.722;2024-02-14T04:27:52;5.77;;;3.07;;
14251;SDS011;7210;51.502;10.722;2024-02-14T04:30:19;4.07;;;3.20;;
14251;SDS011;7210;51.502;10.722;2024-02-14T04:32:46;3.20;;;2.90;;
14251;SDS011;7210;51.502;10.722;2024-02-14T04:35:14;4.67;;;3.00;;
14251;SDS011;7210;51.502;10.722;2024-02-14T04:37:41;3.67;;;2.80;;
14251;SDS011;7210;51.502;10.722;2024-02-14T04:40:11;3.93;;;2.70;;
14251;SDS011;7210;51.502;10.722;2024-02-14T04:42:46;3.73;;;2.83;;
14251;SDS011;7210;51.502;10.722;2024-02-14T04:45:13;3.57;;;2.63;;
14251;SDS011;7210;51.502;10.722;2024-02-14T04:47:40;3.37;;;2.63;;
14251;SDS011;7210;51.502;10.722;2024-02-14T04:50:09;3.50;;;3.00;;
14251;SDS011;7210;51.502;10.722;2024-02-14T04:52:36;3.77;;;3.23;;
14251;SDS011;7210;51.502;10.722;2024-02-14T04:55:04;3.97;;;2.80;;
14251;SDS011;7210;51.502;10.722;2024-02-14T04:57:32;5.67;;;2.97;;
14251;SDS011;7210;51.502;10.722;2024-02-14T05:00:04;4.47;;;2.60;;
14251;SDS011;7210;51.502;10.722;2024-02-14T05:02:34;5.73;;;2.60;;
14251;SDS011;7210;51.502;10.722;2024-02-14T05:05:08;4.10;;;3.30;;
14251;SDS011;7210;51.502;10.722;2024-02-14T05:07:35;5.37;;;2.77;;
14251;SDS011;7210;51.502;10.722;2024-02-14T05:10:02;4.30;;;3.17;;
14251;SDS011;7210;51.502;10.722;2024-02-14T05:12:39;4.80;;;3.33;;
14251;SDS011;7210;51.502;10.722;2024-02-14T05:15:08;4.57;;;3.03;;
14251;SDS011;7210;51.502;10.722;2024-02-14T05:17:37;3.20;;;2.90;;
14251;SDS011;7210;51.502;10.722;2024-02-14T05:20:04;4.63;;;3.13;;
14251;SDS011;7210;51.502;10.722;2024-02-14T05:22:35;5.20;;;2.87;;
14251;SDS011;7210;51.502;10.722;2024-02-14T05:25:03;3.37;;;2.43;;
14251;SDS011;7210;51.502;10.722;2024-02-14T05:27:32;5.40;;;2.90;;
14251;SDS011;7210;51.502;10.722;2024-02-14T05:30:00;5.77;;;2.90;;
14251;SDS011;7210;51.502;10.722;2024-02-14T05:32:32;3.90;;;2.73;;
14251;SDS011;7210;51.502;10.722;2024-02-14T05:34:59;3.10;;;2.80;;
14251;SDS011;7210;51.502;10.722;2024-02-14T05:37:29;7.37;;;3.00;;
14251;SDS011;7210;51.502;10.722;2024-02-14T05:40:02;4.57;;;2.87;;
14251;SDS011;7210;51.502;10.722;2024-02-14T05:42:31;3.53;;;2.87;;
14251;SDS011;7210;51.502;10.722;2024-02-14T05:44:59;4.33;;;2.80;;
14251;SDS011;7210;51.502;10.722;2024-02-14T05:47:27;4.77;;;2.60;;
14251;SDS011;7210;51.502;10.722;2024-02-14T05:49:55;3.10;;;2.80;;
14251;SDS011;7210;51.502;10.722;2024-02-14T05:52:22;5.27;;;3.10;;
14251;SDS011;7210;51.502;10.722;2024-02-14T05:54:49;3.53;;;2.77;;
14251;SDS011;7210;51.502;10.722;2024-02-14T05:57:16;4.47;;;2.90;;
14251;SDS011;7210;51.502;10.722;2024-02-14T05:59:43;7.27;;;2.70;;
14251;SDS011;7210;51.502;10.722;2024-02-14T06:02:10;5.47;;;3.00;;
14251;SDS011;7210;51.502;10.722;2024-02-14T06:04:37;3.43;;;2.30;;
14251;SDS011;7210;51.502;10.722;2024-02-14T06:07:06;4.03;;;2.77;;
14251;SDS011;7210;51.502;10.722;2024-02-14T06:09:35;3.83;;;2.73;;
14251;SDS011;7210;51.502;10.722;2024-02-14T06:12:08;4.63;;;2.77;;
14251;SDS011;7210;51.502;10.722;2024-02-14T06:14:36;5.70;;;3.07;;
14251;SDS011;7210;51.502;10.722;2024-02-14T06:17:03;5.53;;;3.30;;
14251;SDS011;7210;51.502;10.722;2024-02-14T06:19:30;3.40;;;3.00;;
14251;SDS011;7210;51.502;10.722;2024-02-14T06:21:58;4.07;;;2.73;;
14251;SDS011;7210;51.502;10.722;2024-02-14T06:24:27;4.77;;;3.10;;
14251;SDS011;7210;51.502;10.722;2024-02-14T06:26:54;4.80;;;3.37;;
14251;SDS011;7210;51.502;10.722;2024-02-14T06:29:21;3.30;;;2.83;;
14251;SDS011;7210;51.502;10.722;2024-02-14T06:31:48;3.90;;;2.70;;
14251;SDS011;7210;51.502;10.722;2024-02-14T06:34:20;5.43;;;3.10;;
14251;SDS011;7210;51.502;10.722;2024-02-14T06:36:47;4.47;;;2.90;;
14251;SDS011;7210;51.502;10.722;2024-02-14T06:39:14;5.07;;;3.73;;
14251;SDS011;7210;51.502;10.722;2024-02-14T06:41:42;3.27;;;2.80;;
14251;SDS011;7210;51.502;10.722;2024-02-14T06:44:10;6.67;;;3.37;;
14251;SDS011;7210;51.502;10.722;2024-02-14T06:46:38;6.03;;;3.40;;
14251;SDS011;7210;51.502;10.722;2024-02-14T06:49:07;4.07;;;3.20;;
14251;SDS011;7210;51.502;10.722;2024-02-14T06:51:34;7.63;;;3.90;;
14251;SDS011;7210;51.502;10.722;2024-02-14T06:54:01;5.23;;;3.77;;
14251;SDS011;7210;51.502;10.722;2024-02-14T06:56:29;4.80;;;3.67;;
14251;SDS011;7210;51.502;10.722;2024-02-14T06:58:58;4.30;;;3.90;;
14251;SDS011;7210;51.502;10.722;2024-02-14T07:01:25;6.33;;;4.30;;
14251;SDS011;7210;51.502;10.722;2024-02-14T07:03:52;4.93;;;4.43;;
14251;SDS011;7210;51.502;10.722;2024-02-14T07:06:19;5.87;;;4.40;;
14251;SDS011;7210;51.502;10.722;2024-02-14T07:08:47;5.83;;;4.27;;
14251;SDS011;7210;51.502;10.722;2024-02-14T07:11:15;8.27;;;4.20;;
14251;SDS011;7210;51.502;10.722;2024-02-14T07:13:43;4.93;;;3.77;;
14251;SDS011;7210;51.502;10.722;2024-02-14T07:16:11;4.87;;;3.47;;
14251;SDS011;7210;51.502;10.722;2024-02-14T07:18:38;5.57;;;3.77;;
14251;SDS011;7210;51.502;10.722;2024-02-14T07:21:06;5.47;;;3.60;;
14251;SDS011;7210;51.502;10.722;2024-02-14T07:23:33;4.70;;;3.63;;
14251;SDS011;7210;51.502;10.722;2024-02-14T07:26:00;5.07;;;3.60;;
14251;SDS011;7210;51.502;10.722;2024-02-14T07:28:28;2.83;;;2.53;;
14251;SDS011;7210;51.502;10.722;2024-02-14T07:30:55;4.43;;;2.90;;
14251;SDS011;7210;51.502;10.722;2024-02-14T07:33:23;4.23;;;2.70;;
14251;SDS011;7210;51.502;10.722;2024-02-14T07:35:50;4.87;;;2.50;;
14251;SDS011;7210;51.502;10.722;2024-02-14T07:38:17;5.00;;;2.73;;
14251;SDS011;7210;51.502;10.722;2024-02-14T07:40:50;3.13;;;2.50;;
14251;SDS011;7210;51.502;10.722;2024-02-14T07:43:17;4.43;;;2.57;;
14251;SDS011;7210;51.502;10.722;2024-02-14T07:45:44;3.47;;;2.33;;
14251;SDS011;7210;51.502;10.722;2024-02-14T07:48:11;5.00;;;2.60;;
14251;SDS011;7210;51.502;10.722;2024-02-14T07:50:40;4.00;;;2.77;;
14251;SDS011;7210;51.502;10.722;2024-02-14T07:53:08;4.83;;;2.30;;
14251;SDS011;7210;51.502;10.722;2024-02-14T07:55:35;3.77;;;2.10;;
14251;SDS011;7210;51.502;10.722;2024-02-14T07:58:02;3.90;;;2.57;;
14251;SDS011;7210;51.502;10.722;2024-02-14T08:00:29;4.93;;;2.53;;
14251;SDS011;7210;51.502;10.722;2024-02-14T08:02:56;4.63;;;2.60;;
14251;SDS011;7210;51.502;10.722;2024-02-14T08:05:24;5.10;;;2.10;;
14251;SDS011;7210;51.502;10.722;2024-02-14T08:07:53;3.73;;;2.30;;
14251;SDS011;7210;51.502;10.722;2024-02-14T08:10:20;2.73;;;2.03;;
14251;SDS011;7210;51.502;10.722;2024-02-14T08:12:48;4.73;;;2.53;;
14251;SDS011;7210;51.502;10.722;2024-02-14T08:15:20;4.90;;;2.80;;
14251;SDS011;7210;51.502;10.722;2024-02-14T08:17:47;5.40;;;2.60;;
14251;SDS011;7210;51.502;10.722;2024-02-14T08:20:14;3.30;;;2.30;;
14251;SDS011;7210;51.502;10.722;2024-02-14T08:22:43;3.07;;;2.30;;
14251;SDS011;7210;51.502;10.722;2024-02-14T08:25:11;3.70;;;2.10;;
14251;SDS011;7210;51.502;10.722;2024-02-14T08:27:38;2.20;;;2.00;;
14251;SDS011;7210;51.502;10.722;2024-02-14T08:30:06;3.70;;;2.27;;
14251;SDS011;7210;51.502;10.722;2024-02-14T08:32:34;5.43;;;2.60;;
14251;SDS011;7210;51.502;10.722;2024-02-14T08:35:02;2.73;;;2.23;;
14251;SDS011;7210;51.502;10.722;2024-02-14T08:37:29;4.93;;;2.43;;
14251;SDS011;7210;51.502;10.722;2024-02-14T08:39:57;2.63;;;2.30;;
14251;SDS011;7210;51.502;10.722;2024-02-14T08:42:25;3.90;;;2.30;;
14251;SDS011;7210;51.502;10.722;2024-02-14T08:44:52;2.70;;;2.23;;
14251;SDS011;7210;51.502;10.722;2024-02-14T08:47:19;4.00;;;2.50;;
14251;SDS011;7210;51.502;10.722;2024-02-14T08:49:47;2.10;;;1.93;;
14251;SDS011;7210;51.502;10.722;2024-02-14T08:52:14;5.10;;;2.40;;
14251;SDS011;7210;51.502;10.722;2024-02-14T08:54:42;4.37;;;2.50;;
14251;SDS011;7210;51.502;10.722;2024-02-14T08:57:09;2.97;;;2.20;;
14251;SDS011;7210;51.502;10.722;2024-02-14T08:59:37;2.87;;;2.50;;
14251;SDS011;7210;51.502;10.722;2024-02-14T09:02:06;4.97;;;2.40;;
14251;SDS011;7210;51.502;10.722;2024-02-14T09:04:33;3.77;;;2.40;;
14251;SDS011;7210;51.502;10.722;2024-02-14T09:07:02;4.27;;;2.13;;
14251;SDS011;7210;51.502;10.722;2024-02-14T09:09:32;4.10;;;2.20;;
14251;SDS011;7210;51.502;10.722;2024-02-14T09:11:59;3.47;;;2.20;;
14251;SDS011;7210;51.502;10.722;2024-02-14T09:14:27;4.23;;;2.20;;
14251;SDS011;7210;51.502;10.722;2024-02-14T09:16:56;2.93;;;2.00;;
14251;SDS011;7210;51.502;10.722;2024-02-14T09:19:24;3.57;;;2.20;;
14251;SDS011;7210;51.502;10.722;2024-02-14T09:21:52;4.70;;;2.10;;
14251;SDS011;7210;51.502;10.722;2024-02-14T09:24:19;3.97;;;2.30;;
14251;SDS011;7210;51.502;10.722;2024-02-14T09:26:46;3.33;;;2.20;;
14251;SDS011;7210;51.502;10.722;2024-02-14T09:29:13;2.67;;;2.40;;
14251;SDS011;7210;51.502;10.722;2024-02-14T09:31:40;4.97;;;2.40;;
14251;SDS011;7210;51.502;10.722;2024-02-14T09:34:13;4.37;;;2.27;;
14251;SDS011;7210;51.502;10.722;2024-02-14T09:36:44;2.90;;;2.20;;
14251;SDS011;7210;51.502;10.722;2024-02-14T09:39:11;3.90;;;2.00;;
14251;SDS011;7210;51.502;10.722;2024-02-14T09:41:42;4.93;;;2.30;;
14251;SDS011;7210;51.502;10.722;2024-02-14T09:44:17;3.37;;;2.20;;
14251;SDS011;7210;51.502;10.722;2024-02-14T09:46:45;4.97;;;2.30;;
14251;SDS011;7210;51.502;10.722;2024-02-14T09:49:14;5.90;;;2.23;;
14251;SDS011;7210;51.502;10.722;2024-02-14T09:51:45;2.70;;;1.87;;
14251;SDS011;7210;51.502;10.722;2024-02-14T09:54:15;3.20;;;1.90;;
14251;SDS011;7210;51.502;10.722;2024-02-14T09:56:43;2.70;;;1.87;;
14251;SDS011;7210;51.502;10.722;2024-02-14T09:59:18;3.50;;;2.13;;
14251;SDS011;7210;51.502;10.722;2024-02-14T10:01:46;4.20;;;2.40;;
14251;SDS011;7210;51.502;10.722;2024-02-14T10:04:17;4.13;;;2.10;;
14251;SDS011;7210;51.502;10.722;2024-02-14T10:06:45;4.47;;;1.90;;
14251;SDS011;7210;51.502;10.722;2024-02-14T10:09:17;3.43;;;2.10;;
14251;SDS011;7210;51.502;10.722;2024-02-14T10:11:47;4.07;;;2.10;;
14251;SDS011;7210;51.502;10.722;2024-02-14T10:14:15;3.33;;;2.17;;
14251;SDS011;7210;51.502;10.722;2024-02-14T10:16:44;5.23;;;2.47;;
14251;SDS011;7210;51.502;10.722;2024-02-14T10:19:17;4.33;;;2.00;;
14251;SDS011;7210;51.502;10.722;2024-02-14T10:21:54;2.83;;;2.10;;
14251;SDS011;7210;51.502;10.722;2024-02-14T10:24:23;2.67;;;1.87;;
14251;SDS011;7210;51.502;10.722;2024-02-14T10:26:56;3.57;;;1.97;;
14251;SDS011;7210;51.502;10.722;2024-02-14T10:29:25;2.87;;;2.07;;
14251;SDS011;7210;51.502;10.722;2024-02-14T10:31:53;3.70;;;2.50;;
14251;SDS011;7210;51.502;10.722;2024-02-14T10:34:24;3.63;;;2.40;;
14251;SDS011;7210;51.502;10.722;2024-02-14T10:36:52;4.87;;;2.30;;
14251;SDS011;7210;51.502;10.722;2024-02-14T10:39:23;3.40;;;1.90;;
14251;SDS011;7210;51.502;10.722;2024-02-14T10:41:52;4.47;;;2.30;;
14251;SDS011;7210;51.502;10.722;2024-02-14T10:44:20;2.70;;;1.93;;
14251;SDS011;7210;51.502;10.722;2024-02-14T10:46:47;3.60;;;2.20;;
14251;SDS011;7210;51.502;10.722;2024-02-14T10:49:21;4.50;;;2.23;;
14251;SDS011;7210;51.502;10.722;2024-02-14T10:51:52;2.80;;;2.07;;
14251;SDS011;7210;51.502;10.722;2024-02-14T10:54:22;3.67;;;2.00;;
14251;SDS011;7210;51.502;10.722;2024-02-14T10:56:51;5.00;;;2.63;;
14251;SDS011;7210;51.502;10.722;2024-02-14T10:59:24;3.97;;;2.10;;
14251;SDS011;7210;51.502;10.722;2024-02-14T11:01:53;3.53;;;1.93;;
14251;SDS011;7210;51.502;10.722;2024-02-14T11:04:23;3.57;;;1.90;;
14251;SDS011;7210;51.502;10.722;2024-02-14T11:06:56;4.53;;;2.30;;
14251;SDS011;7210;51.502;10.722;2024-02-14T11:09:31;2.30;;;2.00;;
14251;SDS011;7210;51.502;10.722;2024-02-14T11:12:02;3.77;;;2.20;;
14251;SDS011;7210;51.502;10.722;2024-02-14T11:14:38;4.40;;;2.00;;
14251;SDS011;7210;51.502;10.722;2024-02-14T11:17:10;2.83;;;1.93;;
14251;SDS011;7210;51.502;10.722;2024-02-14T11:19:40;2.10;;;1.87;;
14251;SDS011;7210;51.502;10.722;2024-02-14T11:22:11;3.87;;;2.37;;
14251;SDS011;7210;51.502;10.722;2024-02-14T11:24:39;3.23;;;2.00;;
14251;SDS011;7210;51.502;10.722;2024-02-14T11:27:14;2.00;;;1.60;;
14251;SDS011;7210;51.502;10.722;2024-02-14T11:29:56;4.23;;;2.20;;
14251;SDS011;7210;51.502;10.722;2024-02-14T11:32:27;2.70;;;1.97;;
14251;SDS011;7210;51.502;10.722;2024-02-14T11:34:55;4.30;;;1.90;;
14251;SDS011;7210;51.502;10.722;2024-02-14T11:37:27;2.27;;;1.67;;
14251;SDS011;7210;51.502;10.722;2024-02-14T11:39:56;2.93;;;2.03;;
14251;SDS011;7210;51.502;10.722;2024-02-14T11:42:23;2.97;;;1.93;;
14251;SDS011;7210;51.502;10.722;2024-02-14T11:44:51;3.70;;;2.20;;
14251;SDS011;7210;51.502;10.722;2024-02-14T11:47:19;2.57;;;1.90;;
14251;SDS011;7210;51.502;10.722;2024-02-14T11:49:46;3.53;;;2.03;;
14251;SDS011;7210;51.502;10.722;2024-02-14T11:52:15;3.40;;;2.03;;
14251;SDS011;7210;51.502;10.722;2024-02-14T11:54:45;4.83;;;2.47;;
14251;SDS011;7210;51.502;10.722;2024-02-14T11:57:16;5.40;;;2.20;;
14251;SDS011;7210;51.502;10.722;2024-02-14T11:59:44;2.57;;;2.30;;
14251;SDS011;7210;51.502;10.722;2024-02-14T12:02:13;4.90;;;2.30;;
14251;SDS011;7210;51.502;10.722;2024-02-14T12:04:50;3.37;;;2.60;;
14251;SDS011;7210;51.502;10.722;2024-02-14T12:07:20;3.73;;;2.03;;
14251;SDS011;7210;51.502;10.722;2024-02-14T12:09:48;2.97;;;2.00;;
14251;SDS011;7210;51.502;10.722;2024-02-14T12:12:16;2.37;;;1.90;;
14251;SDS011;7210;51.502;10.722;2024-02-14T12:14:43;3.17;;;2.20;;
14251;SDS011;7210;51.502;10.722;2024-02-14T12:17:14;3.73;;;2.20;;
14251;SDS011;7210;51.502;10.722;2024-02-14T12:19:44;4.30;;;2.20;;
14251;SDS011;7210;51.502;10.722;2024-02-14T12:22:12;2.27;;;2.00;;
14251;SDS011;7210;51.502;10.722;2024-02-14T12:24:44;2.30;;;2.07;;
14251;SDS011;7210;51.502;10.722;2024-02-14T12:27:12;4.23;;;2.20;;
14251;SDS011;7210;51.502;10.722;2024-02-14T12:29:45;2.73;;;2.13;;
14251;SDS011;7210;51.502;10.722;2024-02-14T12:32:15;4.87;;;2.37;;
14251;SDS011;7210;51.502;10.722;2024-02-14T12:34:43;4.27;;;2.47;;
14251;SDS011;7210;51.502;10.722;2024-02-14T12:37:11;3.27;;;2.10;;
14251;SDS011;7210;51.502;10.722;2024-02-14T12:39:38;4.23;;;2.13;;
14251;SDS011;7210;51.502;10.722;2024-02-14T12:42:07;4.43;;;2.20;;
14251;SDS011;7210;51.502;10.722;2024-02-14T12:44:34;3.73;;;2.30;;
14251;SDS011;7210;51.502;10.722;2024-02-14T12:47:01;3.50;;;2.30;;
14251;SDS011;7210;51.502;10.722;2024-02-14T12:49:29;4.40;;;2.73;;
14251;SDS011;7210;51.502;10.722;2024-02-14T12:51:57;3.00;;;2.20;;
14251;SDS011;7210;51.502;10.722;2024-02-14T12:54:26;5.13;;;2.40;;
14251;SDS011;7210;51.502;10.722;2024-02-14T12:56:53;3.73;;;2.37;;
14251;SDS011;7210;51.502;10.722;2024-02-14T12:59:21;2.93;;;2.30;;
14251;SDS011;7210;51.502;10.722;2024-02-14T13:01:48;4.10;;;2.07;;
14251;SDS011;7210;51.502;10.722;2024-02-14T13:04:16;2.67;;;2.07;;
14251;SDS011;7210;51.502;10.722;2024-02-14T13:06:43;2.47;;;2.17;;
14251;SDS011;7210;51.502;10.722;2024-02-14T13:09:12;3.97;;;2.40;;
14251;SDS011;7210;51.502;10.722;2024-02-14T13:11:39;2.87;;;2.10;;
14251;SDS011;7210;51.502;10.722;2024-02-14T13:14:07;3.30;;;2.33;;
14251;SDS011;7210;51.502;10.722;2024-02-14T13:16:36;4.40;;;2.40;;
14251;SDS011;7210;51.502;10.722;2024-02-14T13:19:04;4.03;;;2.50;;
14251;SDS011;7210;51.502;10.722;2024-02-14T13:21:31;2.60;;;2.00;;
14251;SDS011;7210;51.502;10.722;2024-02-14T13:23:58;4.63;;;2.30;;
14251;SDS011;7210;51.502;10.722;2024-02-14T13:26:25;2.63;;;2.33;;
14251;SDS011;7210;51.502;10.722;2024-02-14T13:28:53;4.07;;;2.40;;
14251;SDS011;7210;51.502;10.722;2024-02-14T13:31:20;4.30;;;2.30;;
14251;SDS011;7210;51.502;10.722;2024-02-14T13:33:49;3.00;;;2.30;;
14251;SDS011;7210;51.502;10.722;2024-02-14T13:36:16;4.27;;;2.47;;
14251;SDS011;7210;51.502;10.722;2024-02-14T13:38:44;2.90;;;2.27;;
14251;SDS011;7210;51.502;10.722;2024-02-14T13:41:11;3.77;;;2.30;;
14251;SDS011;7210;51.502;10.722;2024-02-14T13:43:38;2.43;;;1.97;;
14251;SDS011;7210;51.502;10.722;2024-02-14T13:46:05;4.17;;;2.10;;
14251;SDS011;7210;51.502;10.722;2024-02-14T13:48:34;4.20;;;2.37;;
14251;SDS011;7210;51.502;10.722;2024-02-14T13:51:03;4.47;;;2.03;;
14251;SDS011;7210;51.502;10.722;2024-02-14T13:53:30;2.40;;;2.20;;
14251;SDS011;7210;51.502;10.722;2024-02-14T13:55:57;4.33;;;1.87;;
14251;SDS011;7210;51.502;10.722;2024-02-14T13:58:24;3.13;;;1.90;;
14251;SDS011;7210;51.502;10.722;2024-02-14T14:00:51;3.00;;;1.93;;
14251;SDS011;7210;51.502;10.722;2024-02-14T14:03:18;3.57;;;2.30;;
14251;SDS011;7210;51.502;10.722;2024-02-14T14:05:50;3.33;;;2.10;;
14251;SDS011;7210;51.502;10.722;2024-02-14T14:08:19;1.80;;;1.70;;
14251;SDS011;7210;51.502;10.722;2024-02-14T14:10:50;3.40;;;2.30;;
14251;SDS011;7210;51.502;10.722;2024-02-14T14:13:20;3.33;;;2.30;;
14251;SDS011;7210;51.502;10.722;2024-02-14T14:15:50;3.10;;;2.10;;
14251;SDS011;7210;51.502;10.722;2024-02-14T14:18:20;2.20;;;1.90;;
14251;SDS011;7210;51.502;10.722;2024-02-14T14:20:47;2.37;;;1.80;;
14251;SDS011;7210;51.502;10.722;2024-02-14T14:23:14;3.17;;;2.20;;
14251;SDS011;7210;51.502;10.722;2024-02-14T14:25:42;3.50;;;1.83;;
14251;SDS011;7210;51.502;10.722;2024-02-14T14:28:09;2.83;;;2.10;;
14251;SDS011;7210;51.502;10.722;2024-02-14T14:30:36;3.80;;;2.10;;
14251;SDS011;7210;51.502;10.722;2024-02-14T14:33:04;2.97;;;1.87;;
14251;SDS011;7210;51.502;10.722;2024-02-14T14:35:38;3.23;;;2.13;;
14251;SDS011;7210;51.502;10.722;2024-02-14T14:38:05;2.20;;;1.90;;
14251;SDS011;7210;51.502;10.722;2024-02-14T14:40:32;3.43;;;2.03;;
14251;SDS011;7210;51.502;10.722;2024-02-14T14:43:01;3.17;;;1.83;;
14251;SDS011;7210;51.502;10.722;2024-02-14T14:45:28;4.53;;;1.90;;
14251;SDS011;7210;51.502;10.722;2024-02-14T14:47:56;2.97;;;1.83;;
14251;SDS011;7210;51.502;10.722;2024-02-14T14:50:23;2.90;;;2.17;;
14251;SDS011;7210;51.502;10.722;2024-02-14T14:52:50;4.10;;;2.10;;
14251;SDS011;7210;51.502;10.722;2024-02-14T14:55:18;2.97;;;1.83;;